Terminal Aerodrome Forecast
Issued by NWS

Home | Current Version | Previous Version | Text Only | Print | Product List | Glossary On
Versions: 1 2 3 4 5 6 7 8 9 10 11 12 13 14 15 16 17 18 19
000
FTUS45 KTFX 291414 AAB
TAFHVR
TAF AMD
KHVR 291414Z 2914/3012 VRB05KT 1 1/2SM FU OVC025
     FM291800 16010G20KT 5SM FU SCT050 BKN100
     FM292300 20015G25KT 4SM FU SCT100 BKN150
     FM300400 24010KT 4SM FU OVC150=

USA.gov is the U.S. government's official web portal to all federal, state and local government web resources and services.